Terminal Aerodrome Forecast
Issued by NWS Charleston, WV

Current Version | Previous Version | Graphics & Text | Print | Product List | Glossary On
Versions: 1 2 3 4 5 6 7 8 9 10 11 12 13 14 15 16 17 18 19 20 21 22
000
FTUS41 KRLX 161421 AAA
TAFHTS
TAF AMD
KHTS 161421Z 1614/1712 26004KT 4SM RA BR FEW008 OVC060
      TEMPO 1614/1616 2SM SHRA OVC010
     FM161600 30010G17KT 1 1/2SM SHRA OVC011
     FM161900 33011G19KT 3SM RA OVC014
     FM162300 34007KT P6SM SCT022=

USA.gov is the U.S. government's official web portal to all federal, state and local government web resources and services.